sensor_id;sensor_type;location;lat;lon;timestamp;pressure;altitude;pressure_sealevel;temperature;humidity
17635;BME280;8936;49.010;12.120;2022-09-04T00:02:01;97942.63;;;21.38;100.00
17635;BME280;8936;49.010;12.120;2022-09-04T00:04:35;97940.69;;;21.38;100.00
17635;BME280;8936;49.010;12.120;2022-09-04T00:07:10;97937.22;;;21.29;100.00
17635;BME280;8936;49.010;12.120;2022-09-04T00:09:41;97939.75;;;21.34;100.00
17635;BME280;8936;49.010;12.120;2022-09-04T00:12:12;97932.16;;;21.28;100.00
17635;BME280;8936;49.010;12.120;2022-09-04T00:14:42;97933.31;;;21.39;100.00
17635;BME280;8936;49.010;12.120;2022-09-04T00:17:13;97939.63;;;21.31;100.00
17635;BME280;8936;49.010;12.120;2022-09-04T00:19:43;97934.34;;;21.34;100.00
17635;BME280;8936;49.010;12.120;2022-09-04T00:22:16;97939.19;;;21.29;100.00
17635;BME280;8936;49.010;12.120;2022-09-04T00:24:49;97933.59;;;21.25;100.00
17635;BME280;8936;49.010;12.120;2022-09-04T00:27:18;97936.56;;;21.32;100.00
17635;BME280;8936;49.010;12.120;2022-09-04T00:29:49;97935.53;;;21.25;100.00
17635;BME280;8936;49.010;12.120;2022-09-04T00:32:19;97938.75;;;21.18;100.00
17635;BME280;8936;49.010;12.120;2022-09-04T00:34:59;97941.69;;;21.05;100.00
17635;BME280;8936;49.010;12.120;2022-09-04T00:37:30;97943.28;;;21.06;100.00
17635;BME280;8936;49.010;12.120;2022-09-04T00:39:59;97946.19;;;21.09;100.00
17635;BME280;8936;49.010;12.120;2022-09-04T00:42:33;97950.16;;;21.12;100.00
17635;BME280;8936;49.010;12.120;2022-09-04T00:45:05;97955.41;;;21.08;100.00
17635;BME280;8936;49.010;12.120;2022-09-04T00:47:59;97958.75;;;21.14;100.00
17635;BME280;8936;49.010;12.120;2022-09-04T00:53:36;97959.09;;;21.12;100.00
17635;BME280;8936;49.010;12.120;2022-09-04T00:56:16;97952.25;;;21.06;100.00
17635;BME280;8936;49.010;12.120;2022-09-04T00:58:55;97959.09;;;21.12;100.00
17635;BME280;8936;49.010;12.120;2022-09-04T01:01:29;97973.34;;;21.09;100.00
17635;BME280;8936;49.010;12.120;2022-09-04T01:04:03;97969.00;;;21.08;100.00
17635;BME280;8936;49.010;12.120;2022-09-04T01:06:33;97968.72;;;21.10;100.00
17635;BME280;8936;49.010;12.120;2022-09-04T01:09:04;97970.09;;;21.16;100.00
17635;BME280;8936;49.010;12.120;2022-09-04T01:11:37;97968.34;;;21.11;100.00
17635;BME280;8936;49.010;12.120;2022-09-04T01:14:08;97973.03;;;21.02;100.00
17635;BME280;8936;49.010;12.120;2022-09-04T01:16:40;97965.03;;;21.06;100.00
17635;BME280;8936;49.010;12.120;2022-09-04T01:19:12;97974.41;;;21.08;100.00
17635;BME280;8936;49.010;12.120;2022-09-04T01:22:02;97974.63;;;21.03;100.00
17635;BME280;8936;49.010;12.120;2022-09-04T01:24:36;97977.97;;;21.09;100.00
17635;BME280;8936;49.010;12.120;2022-09-04T01:27:07;97977.53;;;20.98;100.00
17635;BME280;8936;49.010;12.120;2022-09-04T01:29:36;97978.66;;;20.97;100.00
17635;BME280;8936;49.010;12.120;2022-09-04T01:32:06;97987.50;;;20.85;100.00
17635;BME280;8936;49.010;12.120;2022-09-04T01:34:37;97984.75;;;20.94;100.00
17635;BME280;8936;49.010;12.120;2022-09-04T01:37:08;97981.13;;;20.81;100.00
17635;BME280;8936;49.010;12.120;2022-09-04T01:39:39;97977.97;;;20.79;100.00
17635;BME280;8936;49.010;12.120;2022-09-04T01:42:11;97986.22;;;20.83;100.00
17635;BME280;8936;49.010;12.120;2022-09-04T01:44:43;97991.34;;;20.84;100.00
17635;BME280;8936;49.010;12.120;2022-09-04T01:47:10;97984.78;;;20.85;100.00
17635;BME280;8936;49.010;12.120;2022-09-04T01:49:41;97993.72;;;20.86;100.00
17635;BME280;8936;49.010;12.120;2022-09-04T01:52:12;97994.66;;;20.90;100.00
17635;BME280;8936;49.010;12.120;2022-09-04T01:54:45;97997.19;;;20.95;100.00
17635;BME280;8936;49.010;12.120;2022-09-04T01:57:17;97996.06;;;20.96;100.00
17635;BME280;8936;49.010;12.120;2022-09-04T01:59:53;97999.25;;;20.98;100.00
17635;BME280;8936;49.010;12.120;2022-09-04T02:02:26;97995.31;;;20.87;100.00
17635;BME280;8936;49.010;12.120;2022-09-04T02:04:58;97999.47;;;20.84;100.00
17635;BME280;8936;49.010;12.120;2022-09-04T02:07:26;98003.78;;;20.85;100.00
17635;BME280;8936;49.010;12.120;2022-09-04T02:09:58;97994.06;;;20.84;100.00
17635;BME280;8936;49.010;12.120;2022-09-04T02:12:30;98006.16;;;20.87;100.00
17635;BME280;8936;49.010;12.120;2022-09-04T02:15:01;97998.38;;;20.85;100.00
17635;BME280;8936;49.010;12.120;2022-09-04T02:17:33;97992.28;;;20.88;100.00
17635;BME280;8936;49.010;12.120;2022-09-04T02:20:07;97999.78;;;20.83;100.00
17635;BME280;8936;49.010;12.120;2022-09-04T02:22:37;98001.09;;;20.77;100.00
17635;BME280;8936;49.010;12.120;2022-09-04T02:25:08;97998.28;;;20.73;100.00
17635;BME280;8936;49.010;12.120;2022-09-04T02:27:40;98006.72;;;20.72;100.00
17635;BME280;8936;49.010;12.120;2022-09-04T02:30:10;98010.25;;;20.72;100.00
17635;BME280;8936;49.010;12.120;2022-09-04T02:32:38;98012.50;;;20.70;100.00
17635;BME280;8936;49.010;12.120;2022-09-04T02:35:09;98005.13;;;20.71;100.00
17635;BME280;8936;49.010;12.120;2022-09-04T02:37:42;98008.50;;;20.68;100.00
17635;BME280;8936;49.010;12.120;2022-09-04T02:40:12;98006.91;;;20.67;100.00
17635;BME280;8936;49.010;12.120;2022-09-04T02:42:46;98003.88;;;20.68;100.00
17635;BME280;8936;49.010;12.120;2022-09-04T02:45:18;98014.31;;;20.58;100.00
17635;BME280;8936;49.010;12.120;2022-09-04T02:47:51;98010.13;;;20.60;100.00
17635;BME280;8936;49.010;12.120;2022-09-04T02:50:20;98012.84;;;20.60;100.00
17635;BME280;8936;49.010;12.120;2022-09-04T02:52:55;98012.34;;;20.58;100.00
17635;BME280;8936;49.010;12.120;2022-09-04T02:55:30;98012.09;;;20.51;100.00
17635;BME280;8936;49.010;12.120;2022-09-04T02:58:02;98009.22;;;20.48;100.00
17635;BME280;8936;49.010;12.120;2022-09-04T03:00:39;98004.88;;;20.55;100.00
17635;BME280;8936;49.010;12.120;2022-09-04T03:03:10;98015.59;;;20.52;100.00
17635;BME280;8936;49.010;12.120;2022-09-04T03:05:40;98009.22;;;20.48;100.00
17635;BME280;8936;49.010;12.120;2022-09-04T03:08:11;98019.28;;;20.47;100.00
17635;BME280;8936;49.010;12.120;2022-09-04T03:10:41;98018.31;;;20.52;100.00
17635;BME280;8936;49.010;12.120;2022-09-04T03:13:12;98002.69;;;20.40;100.00
17635;BME280;8936;49.010;12.120;2022-09-04T03:15:43;98008.44;;;20.38;100.00
17635;BME280;8936;49.010;12.120;2022-09-04T03:18:13;98019.47;;;20.33;100.00
17635;BME280;8936;49.010;12.120;2022-09-04T03:20:46;98009.41;;;20.34;100.00
17635;BME280;8936;49.010;12.120;2022-09-04T03:23:18;98010.22;;;20.34;100.00
17635;BME280;8936;49.010;12.120;2022-09-04T03:25:59;98013.91;;;20.30;100.00
17635;BME280;8936;49.010;12.120;2022-09-04T03:28:34;98015.44;;;20.39;100.00
17635;BME280;8936;49.010;12.120;2022-09-04T03:31:15;98014.34;;;20.40;100.00
17635;BME280;8936;49.010;12.120;2022-09-04T03:33:44;98011.66;;;20.32;100.00
17635;BME280;8936;49.010;12.120;2022-09-04T03:36:17;98007.19;;;20.27;100.00
17635;BME280;8936;49.010;12.120;2022-09-04T03:38:48;98015.31;;;20.36;100.00
17635;BME280;8936;49.010;12.120;2022-09-04T03:41:18;98017.69;;;20.37;100.00
17635;BME280;8936;49.010;12.120;2022-09-04T03:44:01;98016.59;;;20.38;100.00
17635;BME280;8936;49.010;12.120;2022-09-04T03:46:36;98011.47;;;20.37;100.00
17635;BME280;8936;49.010;12.120;2022-09-04T03:49:10;98019.75;;;20.40;100.00
17635;BME280;8936;49.010;12.120;2022-09-04T03:51:41;98021.06;;;20.34;100.00
17635;BME280;8936;49.010;12.120;2022-09-04T03:54:11;98021.38;;;20.24;100.00
17635;BME280;8936;49.010;12.120;2022-09-04T03:59:28;98023.97;;;20.21;100.00
17635;BME280;8936;49.010;12.120;2022-09-04T04:01:59;98022.97;;;20.25;100.00
17635;BME280;8936;49.010;12.120;2022-09-04T04:04:37;98024.75;;;20.30;100.00
17635;BME280;8936;49.010;12.120;2022-09-04T04:07:08;98016.13;;;20.28;100.00
17635;BME280;8936;49.010;12.120;2022-09-04T04:09:40;98021.38;;;20.24;100.00
17635;BME280;8936;49.010;12.120;2022-09-04T04:12:19;98026.16;;;20.19;100.00
17635;BME280;8936;49.010;12.120;2022-09-04T04:14:56;98029.69;;;20.19;100.00
17635;BME280;8936;49.010;12.120;2022-09-04T04:17:41;98036.69;;;20.12;100.00
17635;BME280;8936;49.010;12.120;2022-09-04T04:20:17;98038.16;;;20.01;100.00
17635;BME280;8936;49.010;12.120;2022-09-04T04:22:59;98035.63;;;19.96;100.00
17635;BME280;8936;49.010;12.120;2022-09-04T04:25:38;98028.28;;;20.05;100.00
17635;BME280;8936;49.010;12.120;2022-09-04T04:28:16;98037.69;;;20.07;100.00
17635;BME280;8936;49.010;12.120;2022-09-04T04:30:48;98046.59;;;20.16;100.00
17635;BME280;8936;49.010;12.120;2022-09-04T04:33:24;98042.47;;;20.10;100.00
17635;BME280;8936;49.010;12.120;2022-09-04T04:35:58;98059.69;;;19.97;100.00
17635;BME280;8936;49.010;12.120;2022-09-04T04:38:37;98054.13;;;20.02;100.00
17635;BME280;8936;49.010;12.120;2022-09-04T04:41:15;98053.50;;;19.79;100.00
17635;BME280;8936;49.010;12.120;2022-09-04T04:43:49;98049.19;;;19.78;100.00
17635;BME280;8936;49.010;12.120;2022-09-04T04:46:21;98060.34;;;19.77;100.00
17635;BME280;8936;49.010;12.120;2022-09-04T04:49:07;98060.97;;;19.82;100.00
17635;BME280;8936;49.010;12.120;2022-09-04T04:54:27;98060.81;;;19.70;100.00
17635;BME280;8936;49.010;12.120;2022-09-04T04:56:56;98074.50;;;19.65;100.00
17635;BME280;8936;49.010;12.120;2022-09-04T04:59:26;98069.75;;;19.71;100.00
17635;BME280;8936;49.010;12.120;2022-09-04T05:02:00;98086.94;;;19.75;100.00
17635;BME280;8936;49.010;12.120;2022-09-04T05:04:34;98095.41;;;19.82;100.00
17635;BME280;8936;49.010;12.120;2022-09-04T05:07:06;98098.75;;;19.87;100.00
17635;BME280;8936;49.010;12.120;2022-09-04T05:09:35;98100.53;;;19.92;100.00
17635;BME280;8936;49.010;12.120;2022-09-04T05:12:07;98112.47;;;19.82;100.00
17635;BME280;8936;49.010;12.120;2022-09-04T05:14:39;98109.75;;;19.74;100.00
17635;BME280;8936;49.010;12.120;2022-09-04T05:17:19;98112.44;;;19.57;100.00
17635;BME280;8936;49.010;12.120;2022-09-04T05:19:49;98117.72;;;19.62;100.00
17635;BME280;8936;49.010;12.120;2022-09-04T05:22:19;98117.38;;;19.55;100.00
17635;BME280;8936;49.010;12.120;2022-09-04T05:24:50;98116.53;;;19.37;100.00
17635;BME280;8936;49.010;12.120;2022-09-04T05:27:34;98130.34;;;18.88;100.00
17635;BME280;8936;49.010;12.120;2022-09-04T05:30:06;98127.09;;;19.16;100.00
17635;BME280;8936;49.010;12.120;2022-09-04T05:32:36;98129.94;;;19.42;100.00
17635;BME280;8936;49.010;12.120;2022-09-04T05:35:05;98132.38;;;19.61;100.00
17635;BME280;8936;49.010;12.120;2022-09-04T05:37:36;98139.06;;;19.72;100.00
17635;BME280;8936;49.010;12.120;2022-09-04T05:40:06;98144.31;;;19.68;100.00
17635;BME280;8936;49.010;12.120;2022-09-04T05:42:47;98151.50;;;19.73;100.00
17635;BME280;8936;49.010;12.120;2022-09-04T05:45:22;98150.06;;;19.67;100.00
17635;BME280;8936;49.010;12.120;2022-09-04T05:47:56;98160.56;;;19.20;100.00
17635;BME280;8936;49.010;12.120;2022-09-04T05:53:16;98166.50;;;18.25;100.00
17635;BME280;8936;49.010;12.120;2022-09-04T05:58:45;98165.81;;;17.84;100.00
17635;BME280;8936;49.010;12.120;2022-09-04T06:01:17;98175.44;;;17.76;100.00
17635;BME280;8936;49.010;12.120;2022-09-04T06:04:13;98176.63;;;17.43;100.00
17635;BME280;8936;49.010;12.120;2022-09-04T06:06:43;98180.41;;;17.83;100.00
17635;BME280;8936;49.010;12.120;2022-09-04T06:12:04;98184.97;;;18.09;100.00
17635;BME280;8936;49.010;12.120;2022-09-04T06:17:25;98194.25;;;18.53;100.00
17635;BME280;8936;49.010;12.120;2022-09-04T06:20:06;98195.22;;;18.79;100.00
17635;BME280;8936;49.010;12.120;2022-09-04T06:22:38;98206.38;;;19.08;100.00
17635;BME280;8936;49.010;12.120;2022-09-04T06:25:15;98205.22;;;19.31;100.00
17635;BME280;8936;49.010;12.120;2022-09-04T06:27:57;98207.44;;;19.29;100.00
17635;BME280;8936;49.010;12.120;2022-09-04T06:30:27;98212.78;;;19.12;100.00
17635;BME280;8936;49.010;12.120;2022-09-04T06:35:48;98205.00;;;19.19;100.00
17635;BME280;8936;49.010;12.120;2022-09-04T06:38:26;98203.81;;;19.03;100.00
17635;BME280;8936;49.010;12.120;2022-09-04T06:41:12;98206.69;;;18.40;100.00
17635;BME280;8936;49.010;12.120;2022-09-04T06:43:44;98211.78;;;18.19;100.00
17635;BME280;8936;49.010;12.120;2022-09-04T06:46:14;98203.38;;;18.07;100.00
17635;BME280;8936;49.010;12.120;2022-09-04T06:48:48;98217.34;;;17.87;100.00
17635;BME280;8936;49.010;12.120;2022-09-04T06:51:20;98214.06;;;17.63;100.00
17635;BME280;8936;49.010;12.120;2022-09-04T06:53:53;98215.25;;;17.70;100.00
17635;BME280;8936;49.010;12.120;2022-09-04T06:56:30;98216.44;;;17.92;100.00
17635;BME280;8936;49.010;12.120;2022-09-04T07:01:44;98219.66;;;17.80;100.00
17635;BME280;8936;49.010;12.120;2022-09-04T07:04:15;98220.03;;;17.87;100.00
17635;BME280;8936;49.010;12.120;2022-09-04T07:06:49;98218.44;;;18.00;100.00
17635;BME280;8936;49.010;12.120;2022-09-04T07:09:18;98224.56;;;17.92;100.00
17635;BME280;8936;49.010;12.120;2022-09-04T07:11:55;98228.50;;;18.21;100.00
17635;BME280;8936;49.010;12.120;2022-09-04T07:14:33;98230.22;;;18.04;100.00
17635;BME280;8936;49.010;12.120;2022-09-04T07:17:08;98229.63;;;18.07;100.00
17635;BME280;8936;49.010;12.120;2022-09-04T07:19:54;98236.94;;;18.06;100.00
17635;BME280;8936;49.010;12.120;2022-09-04T07:22:34;98245.31;;;18.18;100.00
17635;BME280;8936;49.010;12.120;2022-09-04T07:25:10;98244.38;;;18.37;100.00
17635;BME280;8936;49.010;12.120;2022-09-04T07:27:41;98239.97;;;18.41;100.00
17635;BME280;8936;49.010;12.120;2022-09-04T07:30:11;98248.56;;;18.43;100.00
17635;BME280;8936;49.010;12.120;2022-09-04T07:32:39;98252.47;;;18.50;100.00
17635;BME280;8936;49.010;12.120;2022-09-04T07:35:09;98245.03;;;18.56;100.00
17635;BME280;8936;49.010;12.120;2022-09-04T07:37:42;98260.84;;;18.49;100.00
17635;BME280;8936;49.010;12.120;2022-09-04T07:40:13;98261.69;;;18.49;100.00
17635;BME280;8936;49.010;12.120;2022-09-04T07:42:41;98255.44;;;18.49;100.00
17635;BME280;8936;49.010;12.120;2022-09-04T07:45:14;98255.31;;;18.31;100.00
17635;BME280;8936;49.010;12.120;2022-09-04T07:47:48;98252.88;;;18.30;100.00
17635;BME280;8936;49.010;12.120;2022-09-04T07:50:20;98261.31;;;18.28;100.00
17635;BME280;8936;49.010;12.120;2022-09-04T07:52:56;98260.59;;;18.37;100.00
17635;BME280;8936;49.010;12.120;2022-09-04T07:55:32;98260.03;;;18.48;100.00
17635;BME280;8936;49.010;12.120;2022-09-04T07:58:05;98270.94;;;18.70;100.00
17635;BME280;8936;49.010;12.120;2022-09-04T08:00:34;98274.06;;;18.86;100.00
17635;BME280;8936;49.010;12.120;2022-09-04T08:03:12;98273.63;;;18.93;100.00
17635;BME280;8936;49.010;12.120;2022-09-04T08:05:43;98282.81;;;18.83;100.00
17635;BME280;8936;49.010;12.120;2022-09-04T08:08:22;98289.72;;;18.75;100.00
17635;BME280;8936;49.010;12.120;2022-09-04T08:10:59;98276.63;;;18.91;100.00
17635;BME280;8936;49.010;12.120;2022-09-04T08:13:32;98277.56;;;19.09;100.00
17635;BME280;8936;49.010;12.120;2022-09-04T08:16:04;98276.22;;;18.98;100.00
17635;BME280;8936;49.010;12.120;2022-09-04T08:18:43;98274.88;;;19.09;100.00
17635;BME280;8936;49.010;12.120;2022-09-04T08:21:20;98273.69;;;19.01;100.00
17635;BME280;8936;49.010;12.120;2022-09-04T08:26:37;98284.59;;;19.71;100.00
17635;BME280;8936;49.010;12.120;2022-09-04T08:29:14;98290.38;;;19.78;100.00
17635;BME280;8936;49.010;12.120;2022-09-04T08:31:46;98285.72;;;19.70;100.00
17635;BME280;8936;49.010;12.120;2022-09-04T08:34:31;98293.41;;;19.77;100.00
17635;BME280;8936;49.010;12.120;2022-09-04T08:37:01;98288.78;;;19.77;100.00
17635;BME280;8936;49.010;12.120;2022-09-04T08:39:33;98292.84;;;19.58;100.00
17635;BME280;8936;49.010;12.120;2022-09-04T08:50:23;98297.16;;;19.98;100.00
17635;BME280;8936;49.010;12.120;2022-09-04T08:53:09;98297.00;;;20.03;100.00
17635;BME280;8936;49.010;12.120;2022-09-04T08:55:46;98303.56;;;20.02;100.00
17635;BME280;8936;49.010;12.120;2022-09-04T08:58:31;98301.09;;;19.83;100.00
17635;BME280;8936;49.010;12.120;2022-09-04T09:01:04;98312.88;;;19.87;100.00
17635;BME280;8936;49.010;12.120;2022-09-04T09:03:50;98313.88;;;20.00;100.00
17635;BME280;8936;49.010;12.120;2022-09-04T09:06:30;98311.88;;;20.14;100.00
17635;BME280;8936;49.010;12.120;2022-09-04T09:09:17;98314.13;;;20.21;100.00
17635;BME280;8936;49.010;12.120;2022-09-04T09:14:56;98312.28;;;20.38;100.00
17635;BME280;8936;49.010;12.120;2022-09-04T09:17:33;98314.53;;;20.45;100.00
17635;BME280;8936;49.010;12.120;2022-09-04T09:20:07;98317.81;;;20.33;100.00
17635;BME280;8936;49.010;12.120;2022-09-04T09:22:48;98319.69;;;20.16;100.00
17635;BME280;8936;49.010;12.120;2022-09-04T09:25:32;98318.47;;;20.30;100.00
17635;BME280;8936;49.010;12.120;2022-09-04T09:28:09;98309.44;;;20.61;100.00
17635;BME280;8936;49.010;12.120;2022-09-04T09:33:35;98314.69;;;20.49;100.00
17635;BME280;8936;49.010;12.120;2022-09-04T09:39:09;98304.00;;;20.61;100.00
17635;BME280;8936;49.010;12.120;2022-09-04T09:47:29;98304.16;;;20.73;100.00
17635;BME280;8936;49.010;12.120;2022-09-04T09:52:59;98295.22;;;20.81;100.00
17635;BME280;8936;49.010;12.120;2022-09-04T09:58:22;98282.09;;;21.17;100.00
17635;BME280;8936;49.010;12.120;2022-09-04T10:01:01;98293.13;;;20.86;100.00
17635;BME280;8936;49.010;12.120;2022-09-04T10:03:46;98299.22;;;20.92;100.00
17635;BME280;8936;49.010;12.120;2022-09-04T10:06:40;98285.94;;;21.25;100.00
17635;BME280;8936;49.010;12.120;2022-09-04T10:12:04;98291.56;;;21.66;100.00
17635;BME280;8936;49.010;12.120;2022-09-04T10:14:45;98279.69;;;21.71;100.00
17635;BME280;8936;49.010;12.120;2022-09-04T10:17:20;98285.09;;;21.88;100.00
17635;BME280;8936;49.010;12.120;2022-09-04T10:20:05;98285.84;;;22.26;100.00
17635;BME280;8936;49.010;12.120;2022-09-04T10:31:16;98274.31;;;22.50;100.00
17635;BME280;8936;49.010;12.120;2022-09-04T10:33:46;98276.56;;;22.48;100.00
17635;BME280;8936;49.010;12.120;2022-09-04T10:36:18;98275.97;;;22.42;100.00
17635;BME280;8936;49.010;12.120;2022-09-04T10:38:53;98278.41;;;22.35;100.00
17635;BME280;8936;49.010;12.120;2022-09-04T10:41:49;98271.66;;;22.41;100.00
17635;BME280;8936;49.010;12.120;2022-09-04T10:47:12;98266.63;;;22.73;100.00
17635;BME280;8936;49.010;12.120;2022-09-04T10:49:46;98263.81;;;22.60;100.00
17635;BME280;8936;49.010;12.120;2022-09-04T10:52:21;98268.19;;;22.53;100.00
17635;BME280;8936;49.010;12.120;2022-09-04T10:55:11;98263.97;;;22.43;100.00
17635;BME280;8936;49.010;12.120;2022-09-04T10:57:47;98270.31;;;22.47;100.00
17635;BME280;8936;49.010;12.120;2022-09-04T11:00:19;98264.94;;;22.59;100.00
17635;BME280;8936;49.010;12.120;2022-09-04T11:03:02;98267.81;;;22.63;100.00
17635;BME280;8936;49.010;12.120;2022-09-04T11:05:48;98262.25;;;22.80;100.00
17635;BME280;8936;49.010;12.120;2022-09-04T11:08:35;98265.38;;;23.03;100.00
17635;BME280;8936;49.010;12.120;2022-09-04T11:11:17;98260.03;;;22.94;100.00
17635;BME280;8936;49.010;12.120;2022-09-04T11:14:11;98265.19;;;23.08;100.00
17635;BME280;8936;49.010;12.120;2022-09-04T11:16:48;98264.31;;;23.16;100.00
17635;BME280;8936;49.010;12.120;2022-09-04T11:22:22;98259.75;;;23.08;100.00
17635;BME280;8936;49.010;12.120;2022-09-04T11:30:52;98263.91;;;23.38;100.00
17635;BME280;8936;49.010;12.120;2022-09-04T11:36:20;98251.91;;;23.39;100.00
17635;BME280;8936;49.010;12.120;2022-09-04T11:38:58;98261.00;;;23.43;100.00
17635;BME280;8936;49.010;12.120;2022-09-04T11:44:27;98261.94;;;23.59;100.00
17635;BME280;8936;49.010;12.120;2022-09-04T11:47:07;98256.72;;;23.54;100.00
17635;BME280;8936;49.010;12.120;2022-09-04T11:49:46;98258.75;;;23.82;100.00
17635;BME280;8936;49.010;12.120;2022-09-04T11:52:31;98258.41;;;23.83;100.00
17635;BME280;8936;49.010;12.120;2022-09-04T11:57:45;98249.66;;;24.02;100.00
17635;BME280;8936;49.010;12.120;2022-09-04T12:00:17;98241.47;;;24.02;100.00
17635;BME280;8936;49.010;12.120;2022-09-04T12:05:41;98239.22;;;24.04;100.00
17635;BME280;8936;49.010;12.120;2022-09-04T12:08:22;98244.44;;;23.97;100.00
17635;BME280;8936;49.010;12.120;2022-09-04T12:10:53;98241.25;;;24.07;100.00
17635;BME280;8936;49.010;12.120;2022-09-04T12:16:27;98235.94;;;23.98;100.00
17635;BME280;8936;49.010;12.120;2022-09-04T12:19:17;98248.09;;;24.01;100.00
17635;BME280;8936;49.010;12.120;2022-09-04T12:22:02;98247.41;;;24.04;100.00
17635;BME280;8936;49.010;12.120;2022-09-04T12:24:45;98243.53;;;24.17;98.60
17635;BME280;8936;49.010;12.120;2022-09-04T12:30:06;98232.38;;;24.10;98.79
17635;BME280;8936;49.010;12.120;2022-09-04T12:32:44;98240.13;;;24.32;97.23
17635;BME280;8936;49.010;12.120;2022-09-04T12:35:27;98246.72;;;24.19;98.72
17635;BME280;8936;49.010;12.120;2022-09-04T12:38:21;98238.31;;;23.88;100.00
17635;BME280;8936;49.010;12.120;2022-09-04T12:40:51;98237.47;;;24.36;97.11
17635;BME280;8936;49.010;12.120;2022-09-04T12:43:23;98241.03;;;24.64;96.41
17635;BME280;8936;49.010;12.120;2022-09-04T12:45:56;98231.72;;;24.93;94.36
17635;BME280;8936;49.010;12.120;2022-09-04T12:48:30;98232.00;;;24.88;91.46
17635;BME280;8936;49.010;12.120;2022-09-04T12:51:03;98228.34;;;24.84;92.32
17635;BME280;8936;49.010;12.120;2022-09-04T12:53:46;98241.66;;;24.85;94.46
17635;BME280;8936;49.010;12.120;2022-09-04T12:56:14;98244.16;;;24.50;98.55
17635;BME280;8936;49.010;12.120;2022-09-04T12:58:49;98240.59;;;24.62;96.98
17635;BME280;8936;49.010;12.120;2022-09-04T13:01:20;98244.34;;;24.69;97.07
17635;BME280;8936;49.010;12.120;2022-09-04T13:03:58;98239.16;;;24.80;88.24
17635;BME280;8936;49.010;12.120;2022-09-04T13:06:30;98238.88;;;24.97;88.94
17635;BME280;8936;49.010;12.120;2022-09-04T13:09:03;98237.47;;;24.76;94.11
17635;BME280;8936;49.010;12.120;2022-09-04T13:11:35;98239.75;;;25.01;92.56
17635;BME280;8936;49.010;12.120;2022-09-04T13:14:09;98239.91;;;25.36;88.85
17635;BME280;8936;49.010;12.120;2022-09-04T13:16:44;98244.28;;;25.53;88.20
17635;BME280;8936;49.010;12.120;2022-09-04T13:19:15;98239.63;;;25.41;89.29
17635;BME280;8936;49.010;12.120;2022-09-04T13:21:49;98249.91;;;25.60;88.96
17635;BME280;8936;49.010;12.120;2022-09-04T13:24:23;98238.88;;;25.41;93.83
17635;BME280;8936;49.010;12.120;2022-09-04T13:27:03;98239.16;;;25.08;92.33
17635;BME280;8936;49.010;12.120;2022-09-04T13:29:37;98245.06;;;25.10;92.42
17635;BME280;8936;49.010;12.120;2022-09-04T13:32:17;98243.53;;;24.69;96.28
17635;BME280;8936;49.010;12.120;2022-09-04T13:34:55;98248.66;;;24.98;95.11
17635;BME280;8936;49.010;12.120;2022-09-04T13:37:29;98256.75;;;24.95;94.59
17635;BME280;8936;49.010;12.120;2022-09-04T13:43:09;98250.69;;;25.01;94.60
17635;BME280;8936;49.010;12.120;2022-09-04T13:45:42;98255.34;;;25.01;93.66
17635;BME280;8936;49.010;12.120;2022-09-04T13:48:11;98258.94;;;25.17;94.06
17635;BME280;8936;49.010;12.120;2022-09-04T13:50:40;98251.97;;;24.92;94.02
17635;BME280;8936;49.010;12.120;2022-09-04T13:53:09;98250.03;;;24.64;94.67
17635;BME280;8936;49.010;12.120;2022-09-04T13:55:41;98246.94;;;25.06;90.88
17635;BME280;8936;49.010;12.120;2022-09-04T13:58:08;98259.56;;;24.70;95.90
17635;BME280;8936;49.010;12.120;2022-09-04T14:00:39;98243.78;;;24.92;91.67
17635;BME280;8936;49.010;12.120;2022-09-04T14:03:10;98252.66;;;25.16;89.48
17635;BME280;8936;49.010;12.120;2022-09-04T14:05:39;98247.69;;;24.91;92.61
17635;BME280;8936;49.010;12.120;2022-09-04T14:08:08;98252.06;;;25.23;90.58
17635;BME280;8936;49.010;12.120;2022-09-04T14:13:25;98249.47;;;25.58;87.75
17635;BME280;8936;49.010;12.120;2022-09-04T14:16:00;98246.38;;;25.59;85.13
17635;BME280;8936;49.010;12.120;2022-09-04T14:21:18;98258.31;;;24.68;93.46
17635;BME280;8936;49.010;12.120;2022-09-04T14:23:49;98263.66;;;25.04;92.22
17635;BME280;8936;49.010;12.120;2022-09-04T14:26:23;98263.69;;;25.20;89.90
17635;BME280;8936;49.010;12.120;2022-09-04T14:28:52;98258.78;;;25.41;87.60
17635;BME280;8936;49.010;12.120;2022-09-04T14:31:23;98252.59;;;25.44;89.17
17635;BME280;8936;49.010;12.120;2022-09-04T14:33:55;98253.44;;;25.60;85.88
17635;BME280;8936;49.010;12.120;2022-09-04T14:36:31;98253.19;;;25.50;86.46
17635;BME280;8936;49.010;12.120;2022-09-04T14:39:11;98257.03;;;25.33;87.87
17635;BME280;8936;49.010;12.120;2022-09-04T14:41:46;98250.56;;;25.41;85.62
17635;BME280;8936;49.010;12.120;2022-09-04T14:44:17;98259.75;;;25.33;85.79
17635;BME280;8936;49.010;12.120;2022-09-04T14:46:48;98264.78;;;25.31;85.56
17635;BME280;8936;49.010;12.120;2022-09-04T14:49:20;98272.03;;;25.39;86.91
17635;BME280;8936;49.010;12.120;2022-09-04T14:51:49;98256.78;;;25.54;86.00
17635;BME280;8936;49.010;12.120;2022-09-04T14:54:22;98259.69;;;25.45;87.09
17635;BME280;8936;49.010;12.120;2022-09-04T14:56:51;98260.03;;;25.44;85.30
17635;BME280;8936;49.010;12.120;2022-09-04T14:59:19;98256.47;;;25.55;84.64
17635;BME280;8936;49.010;12.120;2022-09-04T15:01:57;98253.81;;;25.59;83.10
17635;BME280;8936;49.010;12.120;2022-09-04T15:04:26;98252.94;;;25.70;81.73
17635;BME280;8936;49.010;12.120;2022-09-04T15:06:57;98255.75;;;25.58;82.19
17635;BME280;8936;49.010;12.120;2022-09-04T15:09:28;98258.88;;;25.45;84.92
17635;BME280;8936;49.010;12.120;2022-09-04T15:12:11;98250.63;;;25.57;84.37
17635;BME280;8936;49.010;12.120;2022-09-04T15:14:39;98252.41;;;25.49;88.50
17635;BME280;8936;49.010;12.120;2022-09-04T15:17:09;98266.81;;;25.34;91.72